sensor_id;sensor_type;location;lat;lon;timestamp;temperature;humidity
18446;DHT22;9352;50.888;4.466;2023-08-08T00:00:53;14.90;99.90
18446;DHT22;9352;50.888;4.466;2023-08-08T00:03:20;14.90;99.90
18446;DHT22;9352;50.888;4.466;2023-08-08T00:05:47;14.80;99.90
18446;DHT22;9352;50.888;4.466;2023-08-08T00:08:14;14.80;99.90
18446;DHT22;9352;50.888;4.466;2023-08-08T00:10:41;14.80;99.90
18446;DHT22;9352;50.888;4.466;2023-08-08T00:13:09;14.80;99.90
18446;DHT22;9352;50.888;4.466;2023-08-08T00:15:36;14.70;99.90
18446;DHT22;9352;50.888;4.466;2023-08-08T00:18:04;14.80;99.90
18446;DHT22;9352;50.888;4.466;2023-08-08T00:20:31;14.80;99.90
18446;DHT22;9352;50.888;4.466;2023-08-08T00:22:58;14.70;99.90
18446;DHT22;9352;50.888;4.466;2023-08-08T00:25:25;14.70;99.90
18446;DHT22;9352;50.888;4.466;2023-08-08T00:27:52;14.70;99.90
18446;DHT22;9352;50.888;4.466;2023-08-08T00:30:20;14.70;99.90
18446;DHT22;9352;50.888;4.466;2023-08-08T00:32:47;14.70;99.90
18446;DHT22;9352;50.888;4.466;2023-08-08T00:35:14;14.60;99.90
18446;DHT22;9352;50.888;4.466;2023-08-08T00:37:41;14.70;99.90
18446;DHT22;9352;50.888;4.466;2023-08-08T00:40:08;14.60;99.90
18446;DHT22;9352;50.888;4.466;2023-08-08T00:42:35;14.60;99.90
18446;DHT22;9352;50.888;4.466;2023-08-08T00:45:03;14.60;99.90
18446;DHT22;9352;50.888;4.466;2023-08-08T00:47:31;14.60;99.90
18446;DHT22;9352;50.888;4.466;2023-08-08T00:49:59;14.50;99.90
18446;DHT22;9352;50.888;4.466;2023-08-08T00:52:26;14.50;99.90
18446;DHT22;9352;50.888;4.466;2023-08-08T00:54:53;14.50;99.90
18446;DHT22;9352;50.888;4.466;2023-08-08T00:57:20;14.50;99.90
18446;DHT22;9352;50.888;4.466;2023-08-08T00:59:48;14.50;99.90
18446;DHT22;9352;50.888;4.466;2023-08-08T01:02:15;14.50;99.90
18446;DHT22;9352;50.888;4.466;2023-08-08T01:04:43;14.40;99.90
18446;DHT22;9352;50.888;4.466;2023-08-08T01:07:20;14.40;99.90
18446;DHT22;9352;50.888;4.466;2023-08-08T01:09:55;14.40;99.90
18446;DHT22;9352;50.888;4.466;2023-08-08T01:12:24;14.40;99.90
18446;DHT22;9352;50.888;4.466;2023-08-08T01:14:52;14.40;99.90
18446;DHT22;9352;50.888;4.466;2023-08-08T01:17:21;14.30;99.90
18446;DHT22;9352;50.888;4.466;2023-08-08T01:19:50;14.40;99.90
18446;DHT22;9352;50.888;4.466;2023-08-08T01:22:23;14.30;99.90
18446;DHT22;9352;50.888;4.466;2023-08-08T01:24:54;14.30;99.90
18446;DHT22;9352;50.888;4.466;2023-08-08T01:27:22;14.30;99.90
18446;DHT22;9352;50.888;4.466;2023-08-08T01:29:49;14.30;99.90
18446;DHT22;9352;50.888;4.466;2023-08-08T01:32:16;14.30;99.90
18446;DHT22;9352;50.888;4.466;2023-08-08T01:34:43;14.30;99.90
18446;DHT22;9352;50.888;4.466;2023-08-08T01:37:13;14.30;99.90
18446;DHT22;9352;50.888;4.466;2023-08-08T01:39:43;14.20;99.90
18446;DHT22;9352;50.888;4.466;2023-08-08T01:42:12;14.20;99.90
18446;DHT22;9352;50.888;4.466;2023-08-08T01:44:41;14.20;99.90
18446;DHT22;9352;50.888;4.466;2023-08-08T01:47:08;14.20;99.90
18446;DHT22;9352;50.888;4.466;2023-08-08T01:49:35;14.10;99.90
18446;DHT22;9352;50.888;4.466;2023-08-08T01:52:03;14.20;99.90
18446;DHT22;9352;50.888;4.466;2023-08-08T01:54:31;14.20;99.90
18446;DHT22;9352;50.888;4.466;2023-08-08T01:56:57;14.10;99.90
18446;DHT22;9352;50.888;4.466;2023-08-08T01:59:26;14.20;99.90
18446;DHT22;9352;50.888;4.466;2023-08-08T02:01:53;14.20;99.90
18446;DHT22;9352;50.888;4.466;2023-08-08T02:04:20;14.20;99.90
18446;DHT22;9352;50.888;4.466;2023-08-08T02:06:47;14.20;99.90
18446;DHT22;9352;50.888;4.466;2023-08-08T02:09:14;14.30;99.90
18446;DHT22;9352;50.888;4.466;2023-08-08T02:11:41;14.20;99.90
18446;DHT22;9352;50.888;4.466;2023-08-08T02:14:08;14.20;99.90
18446;DHT22;9352;50.888;4.466;2023-08-08T02:16:36;14.20;99.90
18446;DHT22;9352;50.888;4.466;2023-08-08T02:19:05;14.20;99.90
18446;DHT22;9352;50.888;4.466;2023-08-08T02:21:32;14.20;99.90
18446;DHT22;9352;50.888;4.466;2023-08-08T02:23:58;14.10;99.90
18446;DHT22;9352;50.888;4.466;2023-08-08T02:26:25;14.10;99.90
18446;DHT22;9352;50.888;4.466;2023-08-08T02:28:52;14.10;99.90
18446;DHT22;9352;50.888;4.466;2023-08-08T02:31:19;14.00;99.90
18446;DHT22;9352;50.888;4.466;2023-08-08T02:33:49;14.00;99.90
18446;DHT22;9352;50.888;4.466;2023-08-08T02:36:17;14.00;99.90
18446;DHT22;9352;50.888;4.466;2023-08-08T02:38:44;14.00;99.90
18446;DHT22;9352;50.888;4.466;2023-08-08T02:41:11;14.00;99.90
18446;DHT22;9352;50.888;4.466;2023-08-08T02:43:38;14.00;99.90
18446;DHT22;9352;50.888;4.466;2023-08-08T02:46:05;13.90;99.90
18446;DHT22;9352;50.888;4.466;2023-08-08T02:48:32;13.90;99.90
18446;DHT22;9352;50.888;4.466;2023-08-08T02:51:01;13.90;99.90
18446;DHT22;9352;50.888;4.466;2023-08-08T02:53:27;13.90;99.90
18446;DHT22;9352;50.888;4.466;2023-08-08T02:55:54;13.90;99.90
18446;DHT22;9352;50.888;4.466;2023-08-08T02:58:21;13.80;99.90
18446;DHT22;9352;50.888;4.466;2023-08-08T03:00:48;13.80;99.90
18446;DHT22;9352;50.888;4.466;2023-08-08T03:03:15;13.80;99.90
18446;DHT22;9352;50.888;4.466;2023-08-08T03:05:43;13.80;99.90
18446;DHT22;9352;50.888;4.466;2023-08-08T03:08:12;13.80;99.90
18446;DHT22;9352;50.888;4.466;2023-08-08T03:10:39;13.70;99.90
18446;DHT22;9352;50.888;4.466;2023-08-08T03:13:06;13.70;99.90
18446;DHT22;9352;50.888;4.466;2023-08-08T03:15:33;13.70;99.90
18446;DHT22;9352;50.888;4.466;2023-08-08T03:18:01;13.70;99.90
18446;DHT22;9352;50.888;4.466;2023-08-08T03:20:27;13.70;99.90
18446;DHT22;9352;50.888;4.466;2023-08-08T03:22:54;13.70;99.90
18446;DHT22;9352;50.888;4.466;2023-08-08T03:25:23;13.70;99.90
18446;DHT22;9352;50.888;4.466;2023-08-08T03:27:51;13.70;99.90
18446;DHT22;9352;50.888;4.466;2023-08-08T03:30:17;13.60;99.90
18446;DHT22;9352;50.888;4.466;2023-08-08T03:32:44;13.60;99.90
18446;DHT22;9352;50.888;4.466;2023-08-08T03:35:11;13.60;99.90
18446;DHT22;9352;50.888;4.466;2023-08-08T03:37:40;13.60;99.90
18446;DHT22;9352;50.888;4.466;2023-08-08T03:40:07;13.60;99.90
18446;DHT22;9352;50.888;4.466;2023-08-08T03:42:36;13.60;99.90
18446;DHT22;9352;50.888;4.466;2023-08-08T03:45:03;13.60;99.90
18446;DHT22;9352;50.888;4.466;2023-08-08T03:47:30;13.50;99.90
18446;DHT22;9352;50.888;4.466;2023-08-08T03:49:57;13.50;99.90
18446;DHT22;9352;50.888;4.466;2023-08-08T03:52:24;13.50;99.90
18446;DHT22;9352;50.888;4.466;2023-08-08T03:54:51;13.50;99.90
18446;DHT22;9352;50.888;4.466;2023-08-08T03:57:18;13.50;99.90
18446;DHT22;9352;50.888;4.466;2023-08-08T03:59:47;13.50;99.90
18446;DHT22;9352;50.888;4.466;2023-08-08T04:02:13;13.50;99.90
18446;DHT22;9352;50.888;4.466;2023-08-08T04:04:40;13.40;99.90
18446;DHT22;9352;50.888;4.466;2023-08-08T04:07:07;13.40;99.90
18446;DHT22;9352;50.888;4.466;2023-08-08T04:09:34;13.40;99.90
18446;DHT22;9352;50.888;4.466;2023-08-08T04:12:01;13.40;99.90
18446;DHT22;9352;50.888;4.466;2023-08-08T04:14:28;13.40;99.90
18446;DHT22;9352;50.888;4.466;2023-08-08T04:16:56;13.40;99.90
18446;DHT22;9352;50.888;4.466;2023-08-08T04:19:23;13.40;99.90
18446;DHT22;9352;50.888;4.466;2023-08-08T04:21:50;13.40;99.90
18446;DHT22;9352;50.888;4.466;2023-08-08T04:24:17;13.40;99.90
18446;DHT22;9352;50.888;4.466;2023-08-08T04:26:44;13.40;99.90
18446;DHT22;9352;50.888;4.466;2023-08-08T04:29:11;13.40;99.90
18446;DHT22;9352;50.888;4.466;2023-08-08T04:31:38;13.40;99.90
18446;DHT22;9352;50.888;4.466;2023-08-08T04:34:06;13.40;99.90
18446;DHT22;9352;50.888;4.466;2023-08-08T04:36:33;13.40;99.90
18446;DHT22;9352;50.888;4.466;2023-08-08T04:39:00;13.40;99.90
18446;DHT22;9352;50.888;4.466;2023-08-08T04:41:27;13.40;99.90
18446;DHT22;9352;50.888;4.466;2023-08-08T04:43:53;13.50;99.90
18446;DHT22;9352;50.888;4.466;2023-08-08T04:46:20;13.50;99.90
18446;DHT22;9352;50.888;4.466;2023-08-08T04:48:47;13.50;99.90
18446;DHT22;9352;50.888;4.466;2023-08-08T04:51:15;13.60;99.90
18446;DHT22;9352;50.888;4.466;2023-08-08T04:53:42;13.60;99.90
18446;DHT22;9352;50.888;4.466;2023-08-08T04:56:09;13.60;99.90
18446;DHT22;9352;50.888;4.466;2023-08-08T04:58:36;13.70;99.90
18446;DHT22;9352;50.888;4.466;2023-08-08T05:01:03;13.70;99.90
18446;DHT22;9352;50.888;4.466;2023-08-08T05:03:30;13.70;99.90
18446;DHT22;9352;50.888;4.466;2023-08-08T05:05:57;13.80;99.90
18446;DHT22;9352;50.888;4.466;2023-08-08T05:08:26;13.80;99.90
18446;DHT22;9352;50.888;4.466;2023-08-08T05:10:53;13.80;99.90
18446;DHT22;9352;50.888;4.466;2023-08-08T05:13:20;13.80;99.90
18446;DHT22;9352;50.888;4.466;2023-08-08T05:15:47;13.90;99.90
18446;DHT22;9352;50.888;4.466;2023-08-08T05:18:14;13.90;99.90
18446;DHT22;9352;50.888;4.466;2023-08-08T05:20:41;14.00;99.90
18446;DHT22;9352;50.888;4.466;2023-08-08T05:23:07;14.00;99.90
18446;DHT22;9352;50.888;4.466;2023-08-08T05:25:36;14.10;99.90
18446;DHT22;9352;50.888;4.466;2023-08-08T05:28:03;14.10;99.90
18446;DHT22;9352;50.888;4.466;2023-08-08T05:30:30;14.10;99.90
18446;DHT22;9352;50.888;4.466;2023-08-08T05:32:57;14.20;99.90
18446;DHT22;9352;50.888;4.466;2023-08-08T05:35:24;14.20;99.90
18446;DHT22;9352;50.888;4.466;2023-08-08T05:37:50;14.30;99.90
18446;DHT22;9352;50.888;4.466;2023-08-08T05:40:17;14.40;99.90
18446;DHT22;9352;50.888;4.466;2023-08-08T05:42:46;14.40;99.90
18446;DHT22;9352;50.888;4.466;2023-08-08T05:45:13;14.50;99.90
18446;DHT22;9352;50.888;4.466;2023-08-08T05:47:39;14.60;99.90
18446;DHT22;9352;50.888;4.466;2023-08-08T05:50:07;14.70;99.90
18446;DHT22;9352;50.888;4.466;2023-08-08T05:52:34;14.80;99.90
18446;DHT22;9352;50.888;4.466;2023-08-08T05:55:01;14.90;99.90
18446;DHT22;9352;50.888;4.466;2023-08-08T05:57:28;15.00;99.90
18446;DHT22;9352;50.888;4.466;2023-08-08T05:59:56;15.00;99.90
18446;DHT22;9352;50.888;4.466;2023-08-08T06:02:23;15.00;99.90
18446;DHT22;9352;50.888;4.466;2023-08-08T06:04:50;15.00;99.90
18446;DHT22;9352;50.888;4.466;2023-08-08T06:07:17;14.90;99.90
18446;DHT22;9352;50.888;4.466;2023-08-08T06:09:45;14.90;99.90
18446;DHT22;9352;50.888;4.466;2023-08-08T06:12:12;14.90;99.90
18446;DHT22;9352;50.888;4.466;2023-08-08T06:14:39;15.00;99.90
18446;DHT22;9352;50.888;4.466;2023-08-08T06:17:07;15.00;99.90
18446;DHT22;9352;50.888;4.466;2023-08-08T06:19:34;15.10;99.90
18446;DHT22;9352;50.888;4.466;2023-08-08T06:22:01;15.20;99.90
18446;DHT22;9352;50.888;4.466;2023-08-08T06:24:28;15.30;99.90
18446;DHT22;9352;50.888;4.466;2023-08-08T06:26:56;15.40;99.90
18446;DHT22;9352;50.888;4.466;2023-08-08T06:29:23;15.60;99.90
18446;DHT22;9352;50.888;4.466;2023-08-08T06:31:50;15.70;99.90
18446;DHT22;9352;50.888;4.466;2023-08-08T06:34:18;15.80;99.90
18446;DHT22;9352;50.888;4.466;2023-08-08T06:36:45;16.00;99.90
18446;DHT22;9352;50.888;4.466;2023-08-08T06:39:12;16.20;99.90
18446;DHT22;9352;50.888;4.466;2023-08-08T06:41:39;16.30;99.90
18446;DHT22;9352;50.888;4.466;2023-08-08T06:44:07;16.60;99.90
18446;DHT22;9352;50.888;4.466;2023-08-08T06:46:34;16.80;99.90
18446;DHT22;9352;50.888;4.466;2023-08-08T06:49:01;16.90;99.90
18446;DHT22;9352;50.888;4.466;2023-08-08T06:51:30;16.80;99.90
18446;DHT22;9352;50.888;4.466;2023-08-08T06:53:57;16.80;99.90
18446;DHT22;9352;50.888;4.466;2023-08-08T06:56:23;17.00;99.90
18446;DHT22;9352;50.888;4.466;2023-08-08T06:58:51;17.10;99.90
18446;DHT22;9352;50.888;4.466;2023-08-08T07:01:18;17.10;99.90
18446;DHT22;9352;50.888;4.466;2023-08-08T07:03:45;17.20;99.90
18446;DHT22;9352;50.888;4.466;2023-08-08T07:06:13;17.30;99.90
18446;DHT22;9352;50.888;4.466;2023-08-08T07:08:41;17.40;99.90
18446;DHT22;9352;50.888;4.466;2023-08-08T07:11:08;17.50;99.90
18446;DHT22;9352;50.888;4.466;2023-08-08T07:13:36;17.70;99.90
18446;DHT22;9352;50.888;4.466;2023-08-08T07:16:03;17.80;99.90
18446;DHT22;9352;50.888;4.466;2023-08-08T07:18:30;17.80;99.90
18446;DHT22;9352;50.888;4.466;2023-08-08T07:20:57;17.80;99.90
18446;DHT22;9352;50.888;4.466;2023-08-08T07:23:24;17.80;99.90
18446;DHT22;9352;50.888;4.466;2023-08-08T07:25:52;17.70;99.90
18446;DHT22;9352;50.888;4.466;2023-08-08T07:28:19;17.90;99.90
18446;DHT22;9352;50.888;4.466;2023-08-08T07:30:46;18.10;99.90
18446;DHT22;9352;50.888;4.466;2023-08-08T07:33:13;18.10;99.90
18446;DHT22;9352;50.888;4.466;2023-08-08T07:35:40;18.00;99.90
18446;DHT22;9352;50.888;4.466;2023-08-08T07:38:07;18.10;99.90
18446;DHT22;9352;50.888;4.466;2023-08-08T07:40:34;18.10;99.90
18446;DHT22;9352;50.888;4.466;2023-08-08T07:43:03;18.10;99.90
18446;DHT22;9352;50.888;4.466;2023-08-08T07:45:30;18.10;99.90
18446;DHT22;9352;50.888;4.466;2023-08-08T07:47:57;18.10;99.90
18446;DHT22;9352;50.888;4.466;2023-08-08T07:50:24;18.10;99.90
18446;DHT22;9352;50.888;4.466;2023-08-08T07:52:51;18.10;99.90
18446;DHT22;9352;50.888;4.466;2023-08-08T07:55:18;18.20;99.90
18446;DHT22;9352;50.888;4.466;2023-08-08T07:57:45;18.30;99.90
18446;DHT22;9352;50.888;4.466;2023-08-08T08:00:15;18.50;99.90
18446;DHT22;9352;50.888;4.466;2023-08-08T08:02:44;18.50;99.90
18446;DHT22;9352;50.888;4.466;2023-08-08T08:05:12;18.60;99.90
18446;DHT22;9352;50.888;4.466;2023-08-08T08:07:39;18.70;99.90
18446;DHT22;9352;50.888;4.466;2023-08-08T08:10:08;18.70;99.90
18446;DHT22;9352;50.888;4.466;2023-08-08T08:12:36;18.70;99.90
18446;DHT22;9352;50.888;4.466;2023-08-08T08:15:03;18.70;99.90
18446;DHT22;9352;50.888;4.466;2023-08-08T08:17:32;18.70;99.90
18446;DHT22;9352;50.888;4.466;2023-08-08T08:19:59;18.80;99.90
18446;DHT22;9352;50.888;4.466;2023-08-08T08:22:30;18.70;99.90
18446;DHT22;9352;50.888;4.466;2023-08-08T08:24:57;18.70;99.90
18446;DHT22;9352;50.888;4.466;2023-08-08T08:27:24;18.70;99.90
18446;DHT22;9352;50.888;4.466;2023-08-08T08:29:51;18.70;99.90
18446;DHT22;9352;50.888;4.466;2023-08-08T08:32:18;18.60;99.90
18446;DHT22;9352;50.888;4.466;2023-08-08T08:34:46;18.70;99.90
18446;DHT22;9352;50.888;4.466;2023-08-08T08:37:13;18.80;99.90
18446;DHT22;9352;50.888;4.466;2023-08-08T08:39:40;19.00;99.90
18446;DHT22;9352;50.888;4.466;2023-08-08T08:42:08;19.00;99.90
18446;DHT22;9352;50.888;4.466;2023-08-08T08:44:37;19.10;99.90
18446;DHT22;9352;50.888;4.466;2023-08-08T08:47:07;19.20;99.90
18446;DHT22;9352;50.888;4.466;2023-08-08T08:49:38;19.10;99.90
18446;DHT22;9352;50.888;4.466;2023-08-08T08:52:06;19.20;99.90
18446;DHT22;9352;50.888;4.466;2023-08-08T08:54:33;19.20;99.90
18446;DHT22;9352;50.888;4.466;2023-08-08T08:57:01;19.20;99.90
18446;DHT22;9352;50.888;4.466;2023-08-08T08:59:28;19.40;99.90
18446;DHT22;9352;50.888;4.466;2023-08-08T09:01:55;19.50;99.90
18446;DHT22;9352;50.888;4.466;2023-08-08T09:04:23;19.50;99.90
18446;DHT22;9352;50.888;4.466;2023-08-08T09:06:50;19.70;99.90
18446;DHT22;9352;50.888;4.466;2023-08-08T09:09:19;19.90;99.90
18446;DHT22;9352;50.888;4.466;2023-08-08T09:11:51;20.00;99.90
18446;DHT22;9352;50.888;4.466;2023-08-08T09:14:20;20.10;99.90
18446;DHT22;9352;50.888;4.466;2023-08-08T09:16:48;19.90;99.90
18446;DHT22;9352;50.888;4.466;2023-08-08T09:19:15;20.10;99.90
18446;DHT22;9352;50.888;4.466;2023-08-08T09:21:43;20.20;99.90
18446;DHT22;9352;50.888;4.466;2023-08-08T09:24:10;20.00;99.90
18446;DHT22;9352;50.888;4.466;2023-08-08T09:26:39;20.10;99.90
18446;DHT22;9352;50.888;4.466;2023-08-08T09:29:06;20.20;99.90
18446;DHT22;9352;50.888;4.466;2023-08-08T09:31:34;20.30;99.90
18446;DHT22;9352;50.888;4.466;2023-08-08T09:34:02;20.30;99.90
18446;DHT22;9352;50.888;4.466;2023-08-08T09:36:30;20.40;99.90
18446;DHT22;9352;50.888;4.466;2023-08-08T09:38:57;20.30;99.90
18446;DHT22;9352;50.888;4.466;2023-08-08T09:41:24;20.40;99.90
18446;DHT22;9352;50.888;4.466;2023-08-08T09:43:53;21.00;99.90
18446;DHT22;9352;50.888;4.466;2023-08-08T09:46:21;21.40;99.90
18446;DHT22;9352;50.888;4.466;2023-08-08T09:48:48;21.40;99.90
18446;DHT22;9352;50.888;4.466;2023-08-08T09:51:16;21.50;99.90
18446;DHT22;9352;50.888;4.466;2023-08-08T09:53:44;21.40;99.90
18446;DHT22;9352;50.888;4.466;2023-08-08T09:56:12;21.10;99.90
18446;DHT22;9352;50.888;4.466;2023-08-08T09:58:40;20.80;99.90
18446;DHT22;9352;50.888;4.466;2023-08-08T10:01:10;20.70;99.90
18446;DHT22;9352;50.888;4.466;2023-08-08T10:03:38;20.50;99.90
18446;DHT22;9352;50.888;4.466;2023-08-08T10:06:08;20.50;99.90
18446;DHT22;9352;50.888;4.466;2023-08-08T10:08:36;20.50;99.90
18446;DHT22;9352;50.888;4.466;2023-08-08T10:11:04;20.70;99.90
18446;DHT22;9352;50.888;4.466;2023-08-08T10:13:32;21.00;99.90
18446;DHT22;9352;50.888;4.466;2023-08-08T10:16:04;21.30;99.90
18446;DHT22;9352;50.888;4.466;2023-08-08T10:18:32;21.30;99.90
18446;DHT22;9352;50.888;4.466;2023-08-08T10:20:59;21.00;99.90
18446;DHT22;9352;50.888;4.466;2023-08-08T10:23:35;20.80;99.90
18446;DHT22;9352;50.888;4.466;2023-08-08T10:26:03;20.60;99.90
18446;DHT22;9352;50.888;4.466;2023-08-08T10:28:32;20.40;99.90
18446;DHT22;9352;50.888;4.466;2023-08-08T10:31:01;20.30;99.90
18446;DHT22;9352;50.888;4.466;2023-08-08T10:33:41;20.10;99.90
18446;DHT22;9352;50.888;4.466;2023-08-08T10:36:08;20.20;99.90
18446;DHT22;9352;50.888;4.466;2023-08-08T10:38:40;20.00;99.90
18446;DHT22;9352;50.888;4.466;2023-08-08T10:41:10;20.00;99.90
18446;DHT22;9352;50.888;4.466;2023-08-08T10:43:37;19.90;99.90
18446;DHT22;9352;50.888;4.466;2023-08-08T10:46:04;19.60;99.90
18446;DHT22;9352;50.888;4.466;2023-08-08T10:48:32;19.40;99.90
18446;DHT22;9352;50.888;4.466;2023-08-08T10:51:00;19.50;99.90
18446;DHT22;9352;50.888;4.466;2023-08-08T10:53:28;19.50;99.90
18446;DHT22;9352;50.888;4.466;2023-08-08T10:55:59;19.40;99.90
18446;DHT22;9352;50.888;4.466;2023-08-08T10:58:36;19.40;99.90
18446;DHT22;9352;50.888;4.466;2023-08-08T11:01:03;19.40;99.90
18446;DHT22;9352;50.888;4.466;2023-08-08T11:03:34;19.50;99.90
18446;DHT22;9352;50.888;4.466;2023-08-08T11:06:03;19.50;99.90
18446;DHT22;9352;50.888;4.466;2023-08-08T11:08:31;19.50;99.90
18446;DHT22;9352;50.888;4.466;2023-08-08T11:10:59;19.60;99.90
18446;DHT22;9352;50.888;4.466;2023-08-08T11:13:26;19.70;99.90
18446;DHT22;9352;50.888;4.466;2023-08-08T11:15:53;19.90;99.90
18446;DHT22;9352;50.888;4.466;2023-08-08T11:18:20;20.00;99.90
18446;DHT22;9352;50.888;4.466;2023-08-08T11:20:48;20.40;99.90
18446;DHT22;9352;50.888;4.466;2023-08-08T11:23:16;20.90;99.90
18446;DHT22;9352;50.888;4.466;2023-08-08T11:25:45;21.40;99.90
18446;DHT22;9352;50.888;4.466;2023-08-08T11:28:12;21.70;99.90
18446;DHT22;9352;50.888;4.466;2023-08-08T11:30:42;21.70;99.90
18446;DHT22;9352;50.888;4.466;2023-08-08T11:33:12;21.60;99.90
18446;DHT22;9352;50.888;4.466;2023-08-08T11:35:43;21.30;99.90
18446;DHT22;9352;50.888;4.466;2023-08-08T11:38:11;21.50;99.90
18446;DHT22;9352;50.888;4.466;2023-08-08T11:40:41;21.40;99.90
18446;DHT22;9352;50.888;4.466;2023-08-08T11:43:08;21.50;99.90
18446;DHT22;9352;50.888;4.466;2023-08-08T11:45:37;21.70;99.90
18446;DHT22;9352;50.888;4.466;2023-08-08T11:48:05;21.70;99.90
18446;DHT22;9352;50.888;4.466;2023-08-08T11:50:32;21.90;99.90
18446;DHT22;9352;50.888;4.466;2023-08-08T11:52:59;22.30;99.90
18446;DHT22;9352;50.888;4.466;2023-08-08T11:55:30;22.50;99.90
18446;DHT22;9352;50.888;4.466;2023-08-08T11:57:58;22.60;99.90
18446;DHT22;9352;50.888;4.466;2023-08-08T12:00:27;22.50;99.90
18446;DHT22;9352;50.888;4.466;2023-08-08T12:02:55;22.20;99.90
18446;DHT22;9352;50.888;4.466;2023-08-08T12:05:23;22.00;99.90
18446;DHT22;9352;50.888;4.466;2023-08-08T12:07:51;22.20;99.90
18446;DHT22;9352;50.888;4.466;2023-08-08T12:10:19;22.30;99.90
18446;DHT22;9352;50.888;4.466;2023-08-08T12:12:51;22.30;99.90
18446;DHT22;9352;50.888;4.466;2023-08-08T12:15:20;22.60;99.90
18446;DHT22;9352;50.888;4.466;2023-08-08T12:17:47;22.40;99.90
18446;DHT22;9352;50.888;4.466;2023-08-08T12:20:15;22.10;99.90
18446;DHT22;9352;50.888;4.466;2023-08-08T12:22:42;21.70;99.90
18446;DHT22;9352;50.888;4.466;2023-08-08T12:25:09;21.90;99.90
18446;DHT22;9352;50.888;4.466;2023-08-08T12:27:35;22.30;99.90
18446;DHT22;9352;50.888;4.466;2023-08-08T12:30:05;22.80;99.90
18446;DHT22;9352;50.888;4.466;2023-08-08T12:32:35;24.00;99.90
18446;DHT22;9352;50.888;4.466;2023-08-08T12:35:02;24.70;99.90
18446;DHT22;9352;50.888;4.466;2023-08-08T12:37:29;25.60;99.90
18446;DHT22;9352;50.888;4.466;2023-08-08T12:39:56;27.00;99.90
18446;DHT22;9352;50.888;4.466;2023-08-08T12:42:23;26.90;99.90
18446;DHT22;9352;50.888;4.466;2023-08-08T12:44:50;27.00;99.90
18446;DHT22;9352;50.888;4.466;2023-08-08T12:47:17;26.60;99.90
18446;DHT22;9352;50.888;4.466;2023-08-08T12:49:46;26.00;99.90
18446;DHT22;9352;50.888;4.466;2023-08-08T12:52:13;25.60;99.90
18446;DHT22;9352;50.888;4.466;2023-08-08T12:54:40;25.00;99.90
18446;DHT22;9352;50.888;4.466;2023-08-08T12:57:07;25.20;99.90
18446;DHT22;9352;50.888;4.466;2023-08-08T12:59:34;26.00;99.90
18446;DHT22;9352;50.888;4.466;2023-08-08T13:02:01;26.20;99.90
18446;DHT22;9352;50.888;4.466;2023-08-08T13:04:28;26.10;99.90
18446;DHT22;9352;50.888;4.466;2023-08-08T13:06:57;25.60;99.90
18446;DHT22;9352;50.888;4.466;2023-08-08T13:09:24;25.10;99.90
18446;DHT22;9352;50.888;4.466;2023-08-08T13:11:51;24.60;99.90
18446;DHT22;9352;50.888;4.466;2023-08-08T13:14:18;24.10;99.90
18446;DHT22;9352;50.888;4.466;2023-08-08T13:16:45;23.90;99.90
18446;DHT22;9352;50.888;4.466;2023-08-08T13:19:12;24.00;99.90
18446;DHT22;9352;50.888;4.466;2023-08-08T13:21:40;23.90;99.90
18446;DHT22;9352;50.888;4.466;2023-08-08T13:24:09;23.80;99.90
18446;DHT22;9352;50.888;4.466;2023-08-08T13:26:38;23.60;99.90
18446;DHT22;9352;50.888;4.466;2023-08-08T13:29:06;23.40;99.90
18446;DHT22;9352;50.888;4.466;2023-08-08T13:31:33;23.30;99.90
18446;DHT22;9352;50.888;4.466;2023-08-08T13:34:00;23.00;99.90
18446;DHT22;9352;50.888;4.466;2023-08-08T13:36:27;22.90;99.90
18446;DHT22;9352;50.888;4.466;2023-08-08T13:38:54;23.00;99.90
18446;DHT22;9352;50.888;4.466;2023-08-08T13:41:22;23.30;99.90
18446;DHT22;9352;50.888;4.466;2023-08-08T13:43:49;24.80;99.90
18446;DHT22;9352;50.888;4.466;2023-08-08T13:46:17;25.30;99.90
18446;DHT22;9352;50.888;4.466;2023-08-08T13:48:44;25.40;99.90
18446;DHT22;9352;50.888;4.466;2023-08-08T13:51:11;25.00;99.90
18446;DHT22;9352;50.888;4.466;2023-08-08T13:53:38;25.40;99.90
18446;DHT22;9352;50.888;4.466;2023-08-08T13:56:05;25.40;99.90
18446;DHT22;9352;50.888;4.466;2023-08-08T13:58:34;25.50;99.90
18446;DHT22;9352;50.888;4.466;2023-08-08T14:01:01;25.70;99.90
18446;DHT22;9352;50.888;4.466;2023-08-08T14:03:28;25.40;99.90
18446;DHT22;9352;50.888;4.466;2023-08-08T14:05:55;25.30;99.90
18446;DHT22;9352;50.888;4.466;2023-08-08T14:08:23;24.80;99.90
18446;DHT22;9352;50.888;4.466;2023-08-08T14:10:50;24.60;99.90
18446;DHT22;9352;50.888;4.466;2023-08-08T14:13:17;24.40;99.90
18446;DHT22;9352;50.888;4.466;2023-08-08T14:15:46;23.90;99.90
18446;DHT22;9352;50.888;4.466;2023-08-08T14:18:13;23.30;99.90
18446;DHT22;9352;50.888;4.466;2023-08-08T14:20:40;22.90;99.90
18446;DHT22;9352;50.888;4.466;2023-08-08T14:23:07;22.60;99.90
18446;DHT22;9352;50.888;4.466;2023-08-08T14:25:34;22.20;99.90
18446;DHT22;9352;50.888;4.466;2023-08-08T14:28:01;22.10;99.90
18446;DHT22;9352;50.888;4.466;2023-08-08T14:30:29;21.90;99.90
18446;DHT22;9352;50.888;4.466;2023-08-08T14:32:58;21.90;99.90
18446;DHT22;9352;50.888;4.466;2023-08-08T14:35:24;21.90;99.90
18446;DHT22;9352;50.888;4.466;2023-08-08T14:37:51;21.70;99.90
18446;DHT22;9352;50.888;4.466;2023-08-08T14:40:18;21.70;99.90
18446;DHT22;9352;50.888;4.466;2023-08-08T14:42:45;21.60;99.90
18446;DHT22;9352;50.888;4.466;2023-08-08T14:45:13;21.50;99.90
18446;DHT22;9352;50.888;4.466;2023-08-08T14:47:40;21.20;99.90
18446;DHT22;9352;50.888;4.466;2023-08-08T14:50:09;21.00;99.90
18446;DHT22;9352;50.888;4.466;2023-08-08T14:52:36;20.90;99.90
18446;DHT22;9352;50.888;4.466;2023-08-08T14:55:03;20.70;99.90
18446;DHT22;9352;50.888;4.466;2023-08-08T14:57:30;20.80;99.90
18446;DHT22;9352;50.888;4.466;2023-08-08T14:59:58;20.90;99.90
18446;DHT22;9352;50.888;4.466;2023-08-08T15:02:26;20.90;99.90
18446;DHT22;9352;50.888;4.466;2023-08-08T15:04:52;20.90;99.90
18446;DHT22;9352;50.888;4.466;2023-08-08T15:07:21;20.80;99.90
18446;DHT22;9352;50.888;4.466;2023-08-08T15:09:48;20.70;99.90
18446;DHT22;9352;50.888;4.466;2023-08-08T15:12:16;20.70;99.90
18446;DHT22;9352;50.888;4.466;2023-08-08T15:14:43;20.70;99.90
18446;DHT22;9352;50.888;4.466;2023-08-08T15:17:09;20.60;99.90
18446;DHT22;9352;50.888;4.466;2023-08-08T15:19:36;20.60;99.90
18446;DHT22;9352;50.888;4.466;2023-08-08T15:22:04;20.50;99.90
18446;DHT22;9352;50.888;4.466;2023-08-08T15:24:32;20.40;99.90
18446;DHT22;9352;50.888;4.466;2023-08-08T15:27:01;20.30;99.90
18446;DHT22;9352;50.888;4.466;2023-08-08T15:29:28;20.20;99.90
18446;DHT22;9352;50.888;4.466;2023-08-08T15:31:55;20.30;99.90
18446;DHT22;9352;50.888;4.466;2023-08-08T15:34:22;20.30;99.90
18446;DHT22;9352;50.888;4.466;2023-08-08T15:36:49;20.40;99.90
18446;DHT22;9352;50.888;4.466;2023-08-08T15:39:16;20.50;99.90
18446;DHT22;9352;50.888;4.466;2023-08-08T15:41:45;20.50;99.90
18446;DHT22;9352;50.888;4.466;2023-08-08T15:44:12;20.60;99.90
18446;DHT22;9352;50.888;4.466;2023-08-08T15:46:39;20.50;99.90